Rockford, MI

2:17 PM EDT on March 27, 2015 (GMT -0400)
Ionia | | Change Station
CLOSE
Current Station
Airport
Location: Ionia,
Elevation: 817 ft
Nearby Weather Stations

Elev 817 ft 42.94 °N, 85.06 °W | Updated 24 minutes ago

Partly Cloudy
Partly Cloudy
28 °F
Feels Like 17 °F
N
13
Wind Variable Wind from North
Gusts 22 mph

Today
High -- | Low -- °F
--% Chance of Precip.
Yesterday
High -- | Low -- °F
Precip. -- in
7:33 AM 8:02 PM
First Quarter, 54% visible
Pressure 30.07 in
Visibility 10.0 miles
Clouds Scattered Clouds 5500 ft
Windchill 17 °F
Dew Point 1 °F
Humidity 32%
Rainfall 0.00 in
Snow Depth Not available.
UV 6 out of 12
Pollen .90 out of 12
Air Quality Not available.
Flu Activity Not available.
METAR KY70 271753Z AUTO 36011G19KT 10SM SCT055 M02/M17 A3007 RMK AO2 T10251174

More Conditions Fewer Conditions

Pressure 30.07 in
Visibility 10.0 miles
Clouds Scattered Clouds 5500 ft
Windchill 17 °F
Dew Point 1 °F
Humidity 32%
Rainfall 0.00 in
Snow Depth Not available.
UV 6 out of 12
Pollen .90 out of 12
Air Quality Not available.
Flu Activity Not available.
METAR KY70 271753Z AUTO 36011G19KT 10SM SCT055 M02/M17 A3007 RMK AO2 T10251174

More Conditions Fewer Conditions

10-Day Weather Forecast

Almanac

Astronomy

Mar. 27, 2015 Rise Set
Actual Time
Civil Twilight
Nautical Twilight
Astronomical Twilight
Moon
Length of Visible Light
Length of Day
Tomorrow will be .
, % of the Moon is Illuminated

Today's Extremes

State Highs State Lows

Community

WunderPhotos

Upload Photos

1,808,773 photos uploaded!

WunderBlogs® & News

Nearby

Air Quality

  Air Quality AQ Index Pollutant
Not available.

Snow Depth

Station Depth Elevation

Earthquake Activity

City Distance Mag. Time & Date
Minimum magnitude displayed is 2.5.

Coastal Water Temperatures

Place Temperature

Stations

Nearby Weather Stations

Station Location Temp. Windchill Dew Point Humidity Wind Precip. Elev Updated Type